Time;durP1;ratioP1;P1;durP2;ratioP2;P2;SDS_P1;SDS_P2;PMS_P1;PMS_P2;Temp;Humidity;BMP_temperature;BMP_pressure;BME280_temperature;BME280_humidity;BME280_pressure;Samples;Min_cycle;Max_cycle;Signal;HPM_P1;HPM_P2
2022/07/27 00:00:57;;;;;;;3.88;1.50;;;13.60;99.90;;;;;;5045530;28;20049;-70
2022/07/27 00:03:23;;;;;;;4.82;2.22;;;13.60;99.90;;;;;;5046344;28;20052;-70
2022/07/27 00:05:50;;;;;;;6.32;2.40;;;13.50;99.90;;;;;;5046488;28;20040;-70
2022/07/27 00:08:18;;;;;;;7.05;1.98;;;13.50;99.90;;;;;;5045618;28;20045;-70
2022/07/27 00:10:44;;;;;;;5.22;2.08;;;13.50;99.90;;;;;;5040269;28;20033;-70
2022/07/27 00:13:10;;;;;;;4.25;1.92;;;13.50;99.90;;;;;;5046081;28;20045;-70
2022/07/27 00:15:35;;;;;;;5.78;1.80;;;13.50;99.90;;;;;;5046196;28;20045;-70
2022/07/27 00:18:02;;;;;;;6.13;1.52;;;13.60;99.90;;;;;;5063275;28;20045;-70
2022/07/27 00:20:29;;;;;;;3.55;1.65;;;13.70;99.90;;;;;;5063341;28;20053;-70
2022/07/27 00:22:55;;;;;;;9.95;2.83;;;13.80;99.90;;;;;;5045764;28;20060;-70
2022/07/27 00:25:22;;;;;;;4.47;2.10;;;13.70;99.90;;;;;;5046496;28;20052;-70
2022/07/27 00:27:47;;;;;;;6.88;1.88;;;13.80;99.90;;;;;;5046708;28;20493;-70
2022/07/27 00:30:13;;;;;;;4.75;1.77;;;13.70;99.90;;;;;;5045916;28;20048;-70
2022/07/27 00:32:39;;;;;;;6.13;1.60;;;13.60;99.90;;;;;;5045290;28;20041;-70
2022/07/27 00:35:05;;;;;;;5.38;1.90;;;13.60;99.90;;;;;;5045683;28;20055;-70
2022/07/27 00:37:31;;;;;;;7.75;1.70;;;13.60;99.90;;;;;;5046779;28;20075;-70
2022/07/27 00:39:57;;;;;;;6.28;2.38;;;13.60;99.90;;;;;;5045974;28;20047;-70
2022/07/27 00:42:26;;;;;;;7.00;2.05;;;13.60;99.90;;;;;;5028991;28;20049;-70
2022/07/27 00:44:54;;;;;;;6.78;2.42;;;13.60;99.90;;;;;;5045443;28;20060;-70
2022/07/27 00:47:20;;;;;;;5.75;1.95;;;13.70;99.90;;;;;;5045418;28;20048;-70
2022/07/27 00:49:46;;;;;;;7.07;1.90;;;13.60;99.90;;;;;;5045845;28;20049;-70
2022/07/27 00:52:13;;;;;;;7.15;2.03;;;13.70;99.90;;;;;;5063423;28;20080;-70
2022/07/27 00:54:39;;;;;;;6.32;2.03;;;13.70;99.90;;;;;;5045996;28;20045;-70
2022/07/27 00:57:06;;;;;;;6.13;2.20;;;13.80;99.90;;;;;;5062874;28;20098;-70
2022/07/27 00:59:32;;;;;;;8.07;2.25;;;13.80;99.90;;;;;;5063082;28;20067;-70
2022/07/27 01:01:57;;;;;;;2.80;1.98;;;13.70;99.90;;;;;;5028154;28;20057;-70
2022/07/27 01:04:23;;;;;;;7.20;2.60;;;13.70;99.90;;;;;;5063167;28;20049;-70
2022/07/27 01:06:49;;;;;;;5.47;2.45;;;13.70;99.90;;;;;;5063552;28;20394;-70
2022/07/27 01:11:59;;;;;;;5.53;2.30;;;13.80;99.90;;;;;;5062468;28;20083;-70
2022/07/27 01:14:25;;;;;;;8.90;2.38;;;13.70;99.90;;;;;;5062908;28;20131;-70
2022/07/27 01:16:50;;;;;;;8.27;2.60;;;13.70;99.90;;;;;;5062941;28;20091;-70
2022/07/27 01:19:17;;;;;;;7.07;2.38;;;13.70;99.90;;;;;;5062934;28;20382;-70
2022/07/27 01:21:43;;;;;;;6.32;2.17;;;13.60;99.90;;;;;;5062240;28;20100;-70
2022/07/27 01:24:09;;;;;;;6.82;2.50;;;13.50;99.90;;;;;;5036841;28;20045;-70
2022/07/27 01:26:37;;;;;;;6.93;2.70;;;13.30;99.90;;;;;;5045314;28;20075;-70
2022/07/27 01:29:03;;;;;;;7.38;2.70;;;13.20;99.90;;;;;;5049592;28;20044;-70
2022/07/27 01:31:29;;;;;;;9.02;2.22;;;13.10;99.90;;;;;;5031900;28;20052;-70
2022/07/27 01:33:55;;;;;;;6.28;2.13;;;13.10;99.90;;;;;;5048208;28;20108;-70
2022/07/27 01:36:21;;;;;;;4.10;1.77;;;13.00;99.90;;;;;;5048884;28;20098;-70
2022/07/27 01:38:46;;;;;;;5.05;2.20;;;13.00;99.90;;;;;;5048143;28;20052;-70
2022/07/27 01:41:12;;;;;;;7.80;2.05;;;12.90;99.90;;;;;;5048049;28;20059;-70
2022/07/27 01:43:38;;;;;;;9.15;2.60;;;12.90;99.90;;;;;;5061286;28;20057;-70
2022/07/27 01:46:04;;;;;;;6.78;2.40;;;12.90;99.90;;;;;;5048577;28;20125;-70
2022/07/27 01:48:30;;;;;;;4.72;2.22;;;13.00;99.90;;;;;;5048851;28;20080;-70
2022/07/27 01:50:56;;;;;;;5.47;2.13;;;13.00;99.90;;;;;;5048159;28;20045;-70
2022/07/27 01:53:22;;;;;;;7.07;2.47;;;13.10;99.90;;;;;;5031243;28;20560;-70
2022/07/27 01:55:49;;;;;;;8.38;2.30;;;13.10;99.90;;;;;;5031591;28;20037;-70
2022/07/27 01:58:15;;;;;;;3.92;2.03;;;13.20;99.90;;;;;;5064838;28;20096;-70
2022/07/27 02:00:41;;;;;;;4.22;2.28;;;13.20;99.90;;;;;;5048824;28;20063;-70
2022/07/27 02:03:08;;;;;;;6.57;2.35;;;13.10;99.90;;;;;;5047501;28;20045;-70
2022/07/27 02:05:35;;;;;;;8.32;2.85;;;13.00;99.90;;;;;;5047764;28;20127;-70
2022/07/27 02:08:01;;;;;;;6.15;2.10;;;12.90;99.90;;;;;;5047602;28;20060;-70
2022/07/27 02:10:27;;;;;;;8.40;2.55;;;12.80;99.90;;;;;;5047523;28;20040;-70
2022/07/27 02:12:53;;;;;;;6.45;2.53;;;12.80;99.90;;;;;;5047291;28;20564;-70
2022/07/27 02:15:21;;;;;;;8.98;2.83;;;12.70;99.90;;;;;;5048111;28;20043;-70
2022/07/27 02:17:48;;;;;;;8.52;2.33;;;12.60;99.90;;;;;;5048022;28;20040;-70
2022/07/27 02:20:16;;;;;;;7.75;2.83;;;12.50;99.90;;;;;;5032331;28;20049;-70
2022/07/27 02:22:43;;;;;;;5.85;2.88;;;12.40;99.90;;;;;;5048111;28;20052;-70
2022/07/27 02:25:11;;;;;;;6.95;2.83;;;12.30;99.90;;;;;;5047733;28;20049;-70
2022/07/27 02:27:38;;;;;;;7.43;2.30;;;12.30;99.90;;;;;;5048661;28;20080;-70
2022/07/27 02:30:05;;;;;;;8.18;2.70;;;12.30;99.90;;;;;;5048472;28;20488;-70
2022/07/27 02:32:30;;;;;;;6.97;2.50;;;12.30;99.90;;;;;;5048589;28;20048;-70
2022/07/27 02:34:56;;;;;;;5.18;2.20;;;12.30;99.90;;;;;;5047817;28;20045;-70
2022/07/27 02:37:22;;;;;;;4.93;2.42;;;12.30;99.90;;;;;;5064994;28;20052;-70
2022/07/27 02:39:48;;;;;;;6.32;2.25;;;12.30;99.90;;;;;;5039485;28;20048;-70
2022/07/27 02:42:14;;;;;;;4.95;2.10;;;12.30;99.90;;;;;;5059943;28;20049;-70
2022/07/27 02:44:39;;;;;;;5.88;2.35;;;12.30;99.90;;;;;;5063811;28;20071;-70
2022/07/27 02:47:05;;;;;;;4.93;2.28;;;12.30;99.90;;;;;;5063995;28;20524;-70
2022/07/27 02:49:31;;;;;;;4.53;1.83;;;12.20;99.90;;;;;;5063780;28;20049;-70
2022/07/27 02:51:57;;;;;;;4.18;2.15;;;12.00;99.90;;;;;;5064304;28;20052;-70
2022/07/27 02:54:24;;;;;;;4.43;2.08;;;11.90;99.90;;;;;;5063526;28;20041;-70
2022/07/27 02:56:51;;;;;;;4.68;1.92;;;11.70;99.90;;;;;;5064013;28;20063;-70
2022/07/27 02:59:18;;;;;;;7.18;2.40;;;11.60;99.90;;;;;;5066335;28;20087;-70
2022/07/27 03:01:45;;;;;;;4.18;2.42;;;11.50;99.90;;;;;;5064710;28;20049;-70
2022/07/27 03:04:11;;;;;;;4.72;2.10;;;11.50;99.90;;;;;;5064602;28;20052;-70
2022/07/27 03:06:36;;;;;;;9.05;2.80;;;11.40;99.90;;;;;;5063821;28;20389;-70
2022/07/27 03:09:03;;;;;;;4.45;2.50;;;11.20;99.90;;;;;;5076137;28;20063;-70
2022/07/27 03:11:29;;;;;;;2.80;2.00;;;11.20;99.90;;;;;;5063973;28;20072;-70
2022/07/27 03:13:55;;;;;;;4.72;2.17;;;11.20;99.90;;;;;;5068269;28;20044;-70
2022/07/27 03:16:21;;;;;;;7.45;2.55;;;11.10;99.90;;;;;;5065355;28;20051;-70
2022/07/27 03:18:47;;;;;;;4.28;2.20;;;11.10;99.90;;;;;;5044881;28;20044;-70
2022/07/27 03:21:13;;;;;;;3.58;2.20;;;10.90;99.90;;;;;;5066455;28;20070;-70
2022/07/27 03:23:39;;;;;;;6.10;2.63;;;10.90;99.90;;;;;;5065985;28;20060;-70
2022/07/27 03:26:05;;;;;;;5.50;2.83;;;11.00;99.90;;;;;;5063284;28;20114;-70
2022/07/27 03:28:31;;;;;;;6.90;2.70;;;11.00;99.90;;;;;;5071245;28;20044;-70
2022/07/27 03:30:57;;;;;;;7.40;3.03;;;11.10;99.90;;;;;;5057388;28;20072;-70
2022/07/27 03:33:23;;;;;;;5.65;2.35;;;11.20;99.90;;;;;;5062855;28;20110;-70
2022/07/27 03:35:48;;;;;;;9.15;3.20;;;11.00;99.90;;;;;;5063820;28;20053;-70
2022/07/27 03:38:14;;;;;;;6.55;2.72;;;11.10;99.90;;;;;;5064249;28;20209;-70
2022/07/27 03:40:40;;;;;;;5.90;2.72;;;11.20;99.90;;;;;;5064467;28;20033;-70
2022/07/27 03:43:06;;;;;;;6.07;3.35;;;11.20;99.90;;;;;;5065675;28;20114;-70
2022/07/27 03:45:32;;;;;;;4.75;3.05;;;11.20;99.90;;;;;;5065807;28;20037;-70
2022/07/27 03:47:59;;;;;;;10.27;3.22;;;11.20;99.90;;;;;;5066973;28;20123;-70
2022/07/27 03:50:24;;;;;;;9.73;2.90;;;11.30;99.90;;;;;;5084596;28;20098;-70
2022/07/27 03:52:50;;;;;;;8.43;2.92;;;11.30;99.90;;;;;;5048811;28;20041;-70
2022/07/27 03:55:17;;;;;;;9.80;3.88;;;11.30;99.90;;;;;;5065740;28;20059;-70
2022/07/27 03:57:42;;;;;;;8.20;3.75;;;11.30;99.90;;;;;;5065452;28;20512;-70
2022/07/27 04:00:12;;;;;;;5.72;3.00;;;11.40;99.90;;;;;;5065486;28;20040;-70
2022/07/27 04:02:39;;;;;;;7.72;3.38;;;11.40;99.90;;;;;;5060380;28;20052;-70
2022/07/27 04:05:06;;;;;;;7.38;3.08;;;11.40;99.90;;;;;;5049001;28;20041;-70
2022/07/27 04:07:32;;;;;;;8.20;3.20;;;11.60;99.90;;;;;;5083956;28;20075;-70
2022/07/27 04:09:57;;;;;;;7.32;3.50;;;11.70;99.90;;;;;;5066095;28;20048;-70
2022/07/27 04:12:23;;;;;;;9.48;3.60;;;11.80;99.90;;;;;;5065730;28;20051;-70
2022/07/27 04:14:49;;;;;;;5.95;3.22;;;11.80;99.90;;;;;;5065494;28;20052;-70
2022/07/27 04:17:15;;;;;;;6.75;2.85;;;11.90;99.90;;;;;;5065347;28;20051;-70
2022/07/27 04:19:41;;;;;;;6.05;2.70;;;12.00;99.90;;;;;;5066469;28;20036;-70
2022/07/27 04:22:07;;;;;;;8.27;3.55;;;12.10;99.90;;;;;;5065166;28;20097;-70
2022/07/27 04:24:32;;;;;;;5.55;2.85;;;12.10;99.90;;;;;;5047411;28;20120;-70
2022/07/27 04:26:58;;;;;;;6.78;2.83;;;12.10;99.90;;;;;;5064782;28;20056;-70
2022/07/27 04:29:24;;;;;;;8.23;3.00;;;12.10;99.90;;;;;;5083956;28;20036;-70
2022/07/27 04:31:49;;;;;;;9.32;2.83;;;12.20;99.90;;;;;;5066209;28;20115;-70
2022/07/27 04:34:15;;;;;;;7.40;3.15;;;12.30;99.90;;;;;;5084380;28;20074;-70
2022/07/27 04:36:41;;;;;;;8.48;2.53;;;12.30;99.90;;;;;;5066278;28;20048;-70
2022/07/27 04:39:07;;;;;;;9.60;2.92;;;12.40;99.90;;;;;;5065670;28;20047;-70
2022/07/27 04:41:33;;;;;;;5.43;2.97;;;12.50;99.90;;;;;;5066011;28;20509;-70
2022/07/27 04:43:58;;;;;;;9.07;3.08;;;12.50;99.90;;;;;;5066465;28;20052;-70
2022/07/27 04:46:24;;;;;;;6.78;2.92;;;12.50;99.90;;;;;;5083977;28;20056;-71
2022/07/27 04:48:50;;;;;;;8.18;3.40;;;12.60;99.90;;;;;;5065758;28;20040;-71
2022/07/27 04:51:17;;;;;;;6.60;2.95;;;12.70;99.90;;;;;;5065506;28;20068;-71
2022/07/27 04:53:42;;;;;;;5.85;3.25;;;12.70;99.90;;;;;;5065738;28;20041;-71
2022/07/27 04:56:08;;;;;;;6.90;2.83;;;12.80;99.90;;;;;;5065734;28;20055;-71
2022/07/27 04:58:35;;;;;;;7.65;3.17;;;12.90;99.90;;;;;;5065256;28;20067;-71
2022/07/27 05:01:00;;;;;;;6.88;2.67;;;13.00;99.90;;;;;;5064818;28;20048;-71
2022/07/27 05:03:26;;;;;;;8.07;3.08;;;13.00;99.90;;;;;;5068527;28;20058;-71
2022/07/27 05:05:52;;;;;;;5.93;2.70;;;13.00;99.90;;;;;;5069694;28;20040;-71
2022/07/27 05:08:18;;;;;;;6.63;2.67;;;13.10;99.90;;;;;;5070185;28;20040;-71
2022/07/27 05:10:45;;;;;;;5.20;2.60;;;13.10;99.90;;;;;;5088384;28;20040;-71
2022/07/27 05:13:11;;;;;;;6.20;2.80;;;13.20;99.90;;;;;;5070270;28;20040;-71
2022/07/27 05:15:37;;;;;;;7.45;2.70;;;13.30;99.90;;;;;;5052772;28;20044;-71
2022/07/27 05:18:03;;;;;;;6.32;2.78;;;13.30;99.90;;;;;;5069602;28;20044;-71
2022/07/27 05:20:29;;;;;;;5.30;2.65;;;13.30;99.90;;;;;;5068840;28;20137;-71
2022/07/27 05:22:54;;;;;;;7.15;2.40;;;13.30;99.90;;;;;;5087255;28;20135;-71
2022/07/27 05:25:24;;;;;;;10.52;3.17;;;13.30;99.90;;;;;;5067936;28;20059;-71
2022/07/27 05:27:54;;;;;;;5.32;2.60;;;13.30;99.90;;;;;;5087082;28;20091;-70
2022/07/27 05:30:20;;;;;;;9.50;3.00;;;13.30;99.90;;;;;;5069480;28;20044;-71
2022/07/27 05:32:46;;;;;;;8.65;3.03;;;13.50;99.90;;;;;;5069185;28;20063;-71
2022/07/27 05:35:12;;;;;;;7.28;2.42;;;13.50;99.90;;;;;;5068848;28;20090;-71
2022/07/27 05:37:38;;;;;;;11.02;2.67;;;13.70;99.90;;;;;;5068755;28;20044;-71
2022/07/27 05:40:06;;;;;;;6.68;2.83;;;13.80;99.90;;;;;;5069380;28;20036;-71
2022/07/27 05:42:32;;;;;;;13.57;3.33;;;13.90;99.90;;;;;;5069012;28;20048;-71
2022/07/27 05:44:57;;;;;;;10.80;2.90;;;13.90;99.90;;;;;;5068928;28;20045;-71
2022/07/27 05:47:23;;;;;;;7.10;2.60;;;14.00;99.90;;;;;;5068325;28;20048;-70
2022/07/27 05:49:49;;;;;;;6.72;2.63;;;14.20;99.90;;;;;;5068699;28;20100;-71
2022/07/27 05:52:15;;;;;;;11.35;2.50;;;14.20;99.90;;;;;;5068998;28;20052;-71
2022/07/27 05:54:42;;;;;;;6.47;1.98;;;14.30;99.90;;;;;;5068619;28;20050;-71
2022/07/27 05:57:08;;;;;;;14.50;3.03;;;14.40;99.90;;;;;;5065957;28;20440;-71
2022/07/27 05:59:35;;;;;;;6.75;2.05;;;14.50;99.90;;;;;;5069340;28;20051;-71
2022/07/27 06:02:02;;;;;;;8.05;2.08;;;14.50;99.90;;;;;;5082693;28;20123;-71
2022/07/27 06:04:28;;;;;;;7.47;2.38;;;14.60;99.90;;;;;;5068428;28;20045;-70
2022/07/27 06:09:38;;;;;;;7.72;2.35;;;14.70;99.90;;;;;;5086368;28;20044;-70
2022/07/27 06:12:05;;;;;;;2.95;1.73;;;14.60;99.90;;;;;;5086646;28;20048;-71
2022/07/27 06:14:31;;;;;;;8.15;2.20;;;14.60;99.90;;;;;;5066718;28;20472;-71
2022/07/27 06:16:57;;;;;;;7.68;2.83;;;14.70;99.90;;;;;;5067982;28;20508;-71
2022/07/27 06:19:23;;;;;;;8.43;2.30;;;14.60;99.90;;;;;;5086586;28;20048;-71
2022/07/27 06:21:49;;;;;;;7.13;2.30;;;14.60;99.90;;;;;;5063450;28;20532;-71
2022/07/27 06:24:16;;;;;;;8.05;2.45;;;14.50;99.90;;;;;;5068263;28;20053;-70
2022/07/27 06:26:42;;;;;;;8.43;3.03;;;14.50;99.90;;;;;;5049686;28;20040;-70
2022/07/27 06:29:08;;;;;;;8.27;2.35;;;14.50;99.90;;;;;;5065610;28;20106;-70
2022/07/27 06:31:34;;;;;;;9.38;2.47;;;14.50;99.90;;;;;;5064426;28;20044;-71
2022/07/27 06:33:59;;;;;;;9.13;2.30;;;14.50;99.90;;;;;;5067235;28;20048;-71
2022/07/27 06:36:25;;;;;;;6.85;2.58;;;14.50;99.90;;;;;;5067602;28;20047;-70
2022/07/27 06:38:51;;;;;;;10.45;2.65;;;14.50;99.90;;;;;;5084113;28;20102;-71
2022/07/27 06:41:16;;;;;;;6.60;1.98;;;14.50;99.90;;;;;;5060608;28;20098;-71
2022/07/27 06:43:42;;;;;;;9.52;2.47;;;14.40;99.90;;;;;;5066571;28;20091;-70
2022/07/27 06:46:11;;;;;;;5.53;2.28;;;14.50;99.90;;;;;;5048456;28;20044;-71
2022/07/27 06:48:38;;;;;;;9.45;2.50;;;14.50;99.90;;;;;;5043801;28;20141;-70
2022/07/27 06:51:05;;;;;;;5.93;2.38;;;14.50;99.90;;;;;;5047525;28;20045;-70
2022/07/27 06:53:31;;;;;;;6.07;1.90;;;14.50;99.90;;;;;;5027826;28;20037;-70
2022/07/27 06:55:58;;;;;;;6.72;1.95;;;14.60;99.90;;;;;;5043596;28;20108;-71
2022/07/27 06:58:24;;;;;;;9.02;2.80;;;14.60;99.90;;;;;;5065439;28;20049;-71
2022/07/27 07:00:50;;;;;;;8.10;2.08;;;14.50;99.90;;;;;;5065382;28;20049;-71
2022/07/27 07:03:16;;;;;;;5.70;2.17;;;14.40;99.90;;;;;;5031133;28;20064;-71
2022/07/27 07:05:45;;;;;;;11.73;2.80;;;14.30;99.90;;;;;;5031759;28;20052;-71
2022/07/27 07:08:13;;;;;;;6.80;2.13;;;14.40;99.90;;;;;;5041360;28;20485;-71
2022/07/27 07:10:43;;;;;;;6.15;2.10;;;14.40;99.90;;;;;;5030859;28;20104;-71
2022/07/27 07:13:08;;;;;;;;;;;14.40;99.90;;;;;;5047563;28;20080;-71
2022/07/27 07:15:36;;;;;;;5.15;1.75;;;14.40;99.90;;;;;;5047517;28;20582;-71
2022/07/27 07:18:02;;;;;;;6.50;2.00;;;14.40;99.90;;;;;;5029620;28;20056;-70
2022/07/27 07:20:29;;;;;;;9.52;1.98;;;14.50;99.90;;;;;;5047551;28;20386;-71
2022/07/27 07:22:56;;;;;;;7.15;1.60;;;14.60;99.90;;;;;;5045786;28;20541;-71
2022/07/27 07:25:22;;;;;;;4.25;1.80;;;14.70;99.90;;;;;;5044067;28;20081;-70
2022/07/27 07:27:48;;;;;;;5.63;1.85;;;14.70;99.90;;;;;;5011869;28;20041;-71
2022/07/27 07:30:14;;;;;;;12.43;2.50;;;14.80;99.90;;;;;;5065664;28;20040;-71
2022/07/27 07:32:40;;;;;;;5.97;2.17;;;15.00;99.90;;;;;;5042581;28;20045;-71
2022/07/27 07:35:06;;;;;;;7.40;2.13;;;15.10;99.90;;;;;;5030548;28;20056;-71
2022/07/27 07:37:32;;;;;;;4.57;1.73;;;15.20;99.90;;;;;;5046092;28;20049;-70
2022/07/27 07:39:58;;;;;;;7.22;1.60;;;15.30;99.90;;;;;;5046805;28;20091;-70
2022/07/27 07:42:25;;;;;;;5.97;1.60;;;15.40;99.90;;;;;;5046801;28;20102;-71
2022/07/27 07:44:50;;;;;;;4.15;2.00;;;15.50;99.90;;;;;;5060391;28;20071;-71
2022/07/27 07:47:16;;;;;;;5.68;1.50;;;15.60;99.90;;;;;;5042611;28;20053;-71
2022/07/27 07:49:42;;;;;;;6.93;1.95;;;15.70;99.90;;;;;;5046980;28;20052;-71
2022/07/27 07:52:07;;;;;;;5.60;1.85;;;15.70;99.90;;;;;;5046636;28;20136;-71
2022/07/27 07:54:33;;;;;;;6.03;1.63;;;15.70;99.90;;;;;;5042136;28;20071;-71
2022/07/27 07:56:59;;;;;;;7.65;1.70;;;15.70;99.90;;;;;;5046496;28;20048;-71
2022/07/27 07:59:25;;;;;;;5.53;1.80;;;15.70;99.90;;;;;;5061340;28;20078;-71
2022/07/27 08:01:51;;;;;;;6.18;1.88;;;15.70;99.90;;;;;;5046913;28;20068;-71
2022/07/27 08:04:17;;;;;;;6.82;1.70;;;15.70;99.90;;;;;;5044651;28;20047;-71
2022/07/27 08:06:42;;;;;;;6.60;1.73;;;15.70;99.90;;;;;;5045342;28;20040;-71
2022/07/27 08:09:08;;;;;;;9.95;1.90;;;15.70;99.90;;;;;;5063048;28;20052;-71
2022/07/27 08:11:34;;;;;;;4.85;1.42;;;15.70;99.90;;;;;;5042797;28;20045;-69
2022/07/27 08:14:00;;;;;;;5.82;1.92;;;15.70;99.90;;;;;;5046304;28;20402;-70
2022/07/27 08:16:26;;;;;;;6.95;1.58;;;15.80;99.90;;;;;;5064419;28;20192;-69
2022/07/27 08:18:52;;;;;;;3.67;1.50;;;15.80;99.90;;;;;;5046138;28;20045;-69
2022/07/27 08:21:18;;;;;;;5.22;1.27;;;15.80;99.90;;;;;;5060710;28;20041;-69
2022/07/27 08:23:43;;;;;;;7.65;2.22;;;15.80;99.90;;;;;;5046024;28;20045;-69
2022/07/27 08:26:09;;;;;;;8.35;1.40;;;15.90;99.90;;;;;;5036491;28;20573;-69
2022/07/27 08:28:35;;;;;;;6.38;1.50;;;16.00;99.90;;;;;;5017195;28;20123;-68
2022/07/27 08:31:01;;;;;;;9.35;2.03;;;16.20;99.90;;;;;;5055887;28;20030;-69
2022/07/27 08:33:26;;;;;;;6.63;1.70;;;16.30;99.90;;;;;;5042362;28;20059;-69
2022/07/27 08:35:52;;;;;;;6.70;1.60;;;16.30;99.90;;;;;;5043962;28;20044;-69
2022/07/27 08:38:18;;;;;;;8.50;1.75;;;16.50;99.90;;;;;;5048387;28;20493;-70
2022/07/27 08:40:46;;;;;;;5.00;1.27;;;16.70;99.90;;;;;;5066626;28;20041;-69
2022/07/27 08:43:14;;;;;;;5.20;1.60;;;16.80;99.90;;;;;;5048804;28;20060;-70
2022/07/27 08:45:40;;;;;;;8.27;1.50;;;16.90;99.90;;;;;;5030628;28;20044;-69
2022/07/27 08:48:06;;;;;;;5.20;1.40;;;16.90;99.90;;;;;;5061548;28;20052;-69
2022/07/27 08:50:33;;;;;;;6.35;1.52;;;17.00;99.90;;;;;;5046305;28;20034;-69
2022/07/27 08:53:04;;;;;;;5.30;1.50;;;17.10;99.90;;;;;;5048770;28;20049;-68
2022/07/27 08:55:35;;;;;;;7.45;1.73;;;17.30;99.90;;;;;;5047550;28;20036;-68
2022/07/27 08:58:02;;;;;;;6.25;2.00;;;17.20;99.90;;;;;;5047201;28;20068;-70
2022/07/27 09:00:28;;;;;;;8.27;2.10;;;17.00;99.90;;;;;;5048247;28;20083;-72
2022/07/27 09:02:55;;;;;;;7.38;2.15;;;16.50;99.90;;;;;;5063329;28;20052;-72
2022/07/27 09:05:21;;;;;;;5.80;2.45;;;16.20;99.90;;;;;;5049483;28;20041;-72
2022/07/27 09:07:47;;;;;;;7.78;1.73;;;16.00;99.90;;;;;;5049543;28;20037;-68
2022/07/27 09:10:35;;;;;;;5.90;2.00;;;15.80;99.90;;;;;;5048317;28;20049;-68
2022/07/27 09:13:20;;;;;;;6.75;2.00;;;15.70;99.90;;;;;;5062710;28;20047;-69
2022/07/27 09:15:51;;;;;;;4.60;1.60;;;15.60;99.90;;;;;;5047931;28;20040;-69
2022/07/27 09:18:22;;;;;;;6.10;1.63;;;15.40;99.90;;;;;;5048872;28;20041;-68
2022/07/27 09:21:22;;;;;;;4.25;1.90;;;15.40;99.90;;;;;;5049094;28;20060;-68
2022/07/27 09:23:52;;;;;;;10.20;2.08;;;15.40;99.90;;;;;;5047255;28;20385;-69
2022/07/27 09:26:26;;;;;;;7.18;2.10;;;15.30;99.90;;;;;;5032710;28;20056;-68
2022/07/27 09:29:03;;;;;;;6.68;1.85;;;15.40;99.90;;;;;;5049473;28;20095;-68
2022/07/27 09:31:29;;;;;;;7.55;2.17;;;15.50;99.90;;;;;;5031727;28;20049;-68
2022/07/27 09:33:58;;;;;;;5.50;1.98;;;15.50;99.90;;;;;;5048324;28;20041;-69
2022/07/27 09:36:26;;;;;;;9.63;2.65;;;15.60;99.90;;;;;;5049329;28;20096;-68
2022/07/27 09:38:54;;;;;;;8.77;2.45;;;15.70;99.90;;;;;;5047835;28;20049;-68
2022/07/27 09:41:21;;;;;;;9.30;2.58;;;15.90;99.90;;;;;;5040884;28;20056;-68
2022/07/27 09:43:50;;;;;;;6.88;2.10;;;16.10;99.90;;;;;;5065711;28;20049;-66
2022/07/27 09:46:30;;;;;;;11.30;2.25;;;16.20;99.90;;;;;;5060977;28;20037;-64
2022/07/27 09:48:56;;;;;;;8.60;2.00;;;16.40;99.90;;;;;;5048816;28;20045;-65
2022/07/27 09:51:24;;;;;;;6.25;2.17;;;16.60;99.90;;;;;;5052641;28;20048;-65
2022/07/27 09:53:51;;;;;;;10.43;2.03;;;16.80;99.90;;;;;;5049169;28;20501;-64
2022/07/27 09:56:23;;;;;;;7.07;2.42;;;17.00;99.90;;;;;;5058033;28;20053;-65
2022/07/27 09:58:52;;;;;;;8.00;1.65;;;17.20;99.90;;;;;;5051506;28;20037;-64
2022/07/27 10:01:33;;;;;;;3.60;1.48;;;17.50;99.90;;;;;;5065204;28;20139;-65
2022/07/27 10:04:02;;;;;;;5.10;1.30;;;17.70;99.90;;;;;;5047771;28;20049;-65
2022/07/27 10:06:28;;;;;;;3.20;1.42;;;17.80;99.90;;;;;;5063016;28;20054;-65
2022/07/27 10:08:55;;;;;;;5.88;1.73;;;18.00;99.90;;;;;;5059613;28;20037;-65
2022/07/27 10:11:23;;;;;;;6.55;1.88;;;18.10;99.90;;;;;;5059389;28;20045;-65
2022/07/27 10:13:50;;;;;;;3.80;1.38;;;18.30;99.90;;;;;;5049897;28;20045;-65
2022/07/27 10:16:19;;;;;;;4.43;1.38;;;18.20;99.90;;;;;;5057052;28;20053;-65
2022/07/27 10:19:11;;;;;;;3.88;1.20;;;18.30;99.90;;;;;;5053128;28;20080;-65
2022/07/27 10:21:39;;;;;;;3.50;1.20;;;18.30;99.90;;;;;;5054394;28;20045;-65
2022/07/27 10:24:27;;;;;;;3.25;1.27;;;18.40;99.90;;;;;;5053869;28;20608;-65
2022/07/27 10:26:54;;;;;;;4.85;1.23;;;18.40;99.90;;;;;;5000474;28;20410;-64
2022/07/27 10:29:21;;;;;;;6.90;1.77;;;18.40;99.90;;;;;;5048153;28;20034;-64
2022/07/27 10:31:53;;;;;;;5.10;1.20;;;18.40;99.90;;;;;;5056249;28;20060;-66
2022/07/27 10:34:40;;;;;;;5.05;1.05;;;18.50;99.90;;;;;;5046428;28;20061;-65
2022/07/27 10:37:12;;;;;;;6.15;1.50;;;18.60;99.90;;;;;;5060304;28;20451;-65
2022/07/27 10:39:45;;;;;;;7.90;1.80;;;18.60;99.90;;;;;;5052925;28;20064;-65
2022/07/27 10:42:28;;;;;;;5.13;1.45;;;18.70;99.90;;;;;;5047507;28;20053;-65
2022/07/27 10:45:02;;;;;;;6.03;1.63;;;18.80;99.90;;;;;;5013414;28;20049;-65
2022/07/27 10:47:34;;;;;;;5.50;1.23;;;19.00;99.90;;;;;;5040591;28;20075;-65
2022/07/27 10:50:14;;;;;;;7.60;1.42;;;19.00;99.90;;;;;;5012429;28;20045;-63
2022/07/27 10:52:45;;;;;;;3.60;1.30;;;19.10;99.90;;;;;;5040754;28;20045;-65
2022/07/27 10:55:30;;;;;;;7.18;1.42;;;19.10;99.90;;;;;;5025287;28;20064;-66
2022/07/27 10:58:17;;;;;;;5.97;1.80;;;19.40;99.90;;;;;;5038463;28;20060;-65
2022/07/27 11:00:48;;;;;;;2.67;1.02;;;19.50;99.90;;;;;;4974127;28;20042;-66
2022/07/27 11:03:32;;;;;;;5.93;1.50;;;19.70;99.90;;;;;;5011217;28;20065;-66
2022/07/27 11:06:11;;;;;;;4.30;1.20;;;19.80;99.90;;;;;;5042316;28;20052;-65
2022/07/27 11:08:44;;;;;;;6.13;1.52;;;19.50;99.90;;;;;;5024601;28;20049;-65
2022/07/27 11:11:16;;;;;;;4.43;1.33;;;19.40;99.90;;;;;;5033474;28;20045;-65
2022/07/27 11:13:42;;;;;;;3.60;1.00;;;19.20;99.90;;;;;;5015194;28;20085;-65
2022/07/27 11:16:14;;;;;;;6.28;1.50;;;19.30;99.90;;;;;;5013402;28;20038;-65
2022/07/27 11:18:41;;;;;;;4.10;1.50;;;19.20;99.90;;;;;;5026400;28;20056;-66
2022/07/27 11:21:18;;;;;;;6.17;1.17;;;19.10;99.90;;;;;;5109357;27;1282177;-64
2022/07/27 11:23:46;;;;;;;4.93;1.33;;;19.10;99.90;;;;;;5128782;27;20090;-65
2022/07/27 11:26:13;;;;;;;3.45;1.05;;;19.10;99.90;;;;;;5078219;28;20075;-64
2022/07/27 11:28:39;;;;;;;4.18;1.08;;;19.20;99.90;;;;;;5075951;28;20078;-63
2022/07/27 11:31:06;;;;;;;2.75;1.38;;;19.30;99.90;;;;;;5078657;28;20521;-64
2022/07/27 11:33:33;;;;;;;4.35;1.35;;;19.50;99.90;;;;;;5072178;28;20045;-65
2022/07/27 11:36:02;;;;;;;5.93;1.45;;;19.70;99.90;;;;;;5073932;28;20037;-64
2022/07/27 11:38:28;;;;;;;2.53;1.10;;;19.70;99.90;;;;;;5069976;28;20043;-65
2022/07/27 11:40:54;;;;;;;5.30;1.20;;;19.90;99.90;;;;;;5091475;28;20068;-65
2022/07/27 11:43:36;;;;;;;6.00;1.48;;;19.90;99.90;;;;;;5064644;28;20075;-65
2022/07/27 11:46:30;;;;;;;4.10;1.23;;;19.90;99.90;;;;;;5087000;28;20048;-64
2022/07/27 11:49:03;;;;;;;3.30;1.20;;;20.00;99.90;;;;;;5062381;28;20060;-65
2022/07/27 11:51:29;;;;;;;3.17;1.00;;;20.20;99.90;;;;;;5080845;28;20059;-64
2022/07/27 11:54:04;;;;;;;2.80;1.00;;;20.20;99.90;;;;;;5081919;28;20056;-64
2022/07/27 11:56:33;;;;;;;1.70;1.08;;;20.00;99.90;;;;;;5093710;28;20043;-65
2022/07/27 11:59:02;;;;;;;4.40;0.80;;;19.90;99.90;;;;;;5078897;28;20059;-65
2022/07/27 12:01:35;;;;;;;2.78;0.90;;;19.70;99.90;;;;;;5093303;28;20302;-65
2022/07/27 12:04:17;;;;;;;4.30;1.00;;;19.60;99.90;;;;;;5073540;28;20051;-64
2022/07/27 12:06:45;;;;;;;3.10;1.00;;;19.50;99.90;;;;;;5079586;28;20550;-65
2022/07/27 12:09:13;;;;;;;3.17;0.95;;;19.50;99.90;;;;;;5074438;28;20052;-65
2022/07/27 12:11:52;;;;;;;4.30;1.23;;;19.50;99.90;;;;;;5085253;28;20040;-64
2022/07/27 12:14:24;;;;;;;5.03;1.00;;;19.60;99.90;;;;;;5075414;28;20056;-65
2022/07/27 12:16:50;;;;;;;2.00;0.90;;;19.50;99.90;;;;;;5077554;28;20052;-65
2022/07/27 12:19:23;;;;;;;3.08;1.23;;;19.70;99.90;;;;;;5067632;28;20060;-65
2022/07/27 12:21:53;;;;;;;3.97;1.20;;;19.60;99.90;;;;;;5083127;28;20127;-64
2022/07/27 12:24:19;;;;;;;5.53;1.00;;;19.50;99.90;;;;;;5054224;28;20053;-65
2022/07/27 12:27:01;;;;;;;3.63;0.80;;;19.60;99.90;;;;;;5089006;28;20496;-65
2022/07/27 12:29:26;;;;;;;2.47;1.08;;;19.70;99.90;;;;;;5098837;28;20098;-64
2022/07/27 12:31:53;;;;;;;4.38;0.88;;;19.70;99.90;;;;;;5070242;28;20041;-65
2022/07/27 12:34:18;;;;;;;4.80;0.98;;;19.90;99.90;;;;;;5063588;28;20040;-65
2022/07/27 12:36:44;;;;;;;1.75;0.80;;;20.10;99.90;;;;;;5081137;28;20124;-65
2022/07/27 12:39:30;;;;;;;4.05;0.90;;;20.20;99.90;;;;;;5061731;28;20055;-64
2022/07/27 12:42:07;;;;;;;3.47;0.80;;;20.40;99.90;;;;;;5071453;28;20151;-64
2022/07/27 12:44:35;;;;;;;2.65;0.90;;;20.50;99.90;;;;;;5070616;28;20056;-64
2022/07/27 12:47:39;;;;;;;3.17;0.75;;;20.70;99.90;;;;;;5075950;28;20040;-65
2022/07/27 12:50:00;;;;;;;3.58;1.00;;;21.00;99.90;;;;;;5078420;28;20615;-64
2022/07/27 12:52:25;;;;;;;2.50;0.90;;;21.40;99.90;;;;;;5074350;28;20041;-65
2022/07/27 12:54:51;;;;;;;5.63;1.17;;;21.70;99.90;;;;;;5070101;28;20049;-65